Hamiota, Canada
Current Conditions -  °F | °C
As of 4:00 PM on Friday 31 Oct 2014 (Local Time) from CYBR Reporting Station
Broken Clouds Broken Clouds  
Wind Chill: 31°   Ceiling: 21000
Heat Index: 39°   Visibility: 15mi
Dew Point: 10°   Wind: 15mph
Humidity: 31%   Direction: 160°SSE
Pressure: 30.26"   Gusts: NA
Location:  50.18°N, 100.6°W
Report Text: CYBR 312100Z 16013KT 15SM SCT150 BKN210 04/M12 A3026 RMK AC4CI3 PRESFR SLP276
Loading
Personal Weather Stations






























Interactive Weather Map
Tropical Storm Tracking
New forecast layout! Learn more

10-Day Weather Forecast

Advertisements
Track Severe Weather on mobile